createdAt,value
2023-03-08T00:01:16.774Z,98973.81
2023-03-08T00:03:43.673Z,98980.69
2023-03-08T00:06:18.152Z,98990.22
2023-03-08T00:08:49.133Z,98985.91
2023-03-08T00:11:17.695Z,98997.09
2023-03-08T00:13:44.365Z,99000.53
2023-03-08T00:16:14.382Z,99004.84
2023-03-08T00:18:43.914Z,99006.63
2023-03-08T00:21:17.641Z,99009.19
2023-03-08T00:23:48.031Z,99002.31
2023-03-08T00:26:15.005Z,99008.34
2023-03-08T00:28:46.412Z,99008.31
2023-03-08T00:31:14.108Z,99015.25
2023-03-08T00:33:40.856Z,99016.97
2023-03-08T00:36:11.996Z,99016.13
2023-03-08T00:38:41.372Z,99016.09
2023-03-08T00:41:08.601Z,99017.81
2023-03-08T00:43:35.421Z,99021.28
2023-03-08T00:46:04.508Z,99013.50
2023-03-08T00:48:31.831Z,99023.00
2023-03-08T00:50:58.458Z,99023.00
2023-03-08T00:53:25.386Z,99022.13
2023-03-08T00:55:54.264Z,99023.88
2023-03-08T00:58:21.264Z,99026.44
2023-03-08T01:00:51.016Z,99032.50
2023-03-08T01:03:18.757Z,99026.47
2023-03-08T01:05:50.233Z,99035.06
2023-03-08T01:08:17.930Z,99038.56
2023-03-08T01:10:49.789Z,99042.03
2023-03-08T01:13:17.413Z,99039.41
2023-03-08T01:15:44.268Z,99047.19
2023-03-08T01:18:11.138Z,99041.97
2023-03-08T01:20:37.809Z,99038.53
2023-03-08T01:23:04.964Z,99044.59
2023-03-08T01:25:31.708Z,99044.59
2023-03-08T01:27:58.420Z,99052.38
2023-03-08T01:30:25.031Z,99048.06
2023-03-08T01:32:51.669Z,99048.91
2023-03-08T01:35:18.408Z,99050.63
2023-03-08T01:37:45.019Z,99046.31
2023-03-08T01:40:16.123Z,99046.31
2023-03-08T01:42:42.741Z,99051.53
2023-03-08T01:45:46.971Z,99052.38
2023-03-08T01:48:15.247Z,99053.22
2023-03-08T01:50:43.294Z,99048.03
2023-03-08T01:53:09.903Z,99054.94
2023-03-08T01:55:36.559Z,99054.94
2023-03-08T01:58:03.175Z,99056.69
2023-03-08T02:00:29.807Z,99060.13
2023-03-08T02:03:05.147Z,99064.44
2023-03-08T02:05:31.761Z,99068.75
2023-03-08T02:07:58.521Z,99069.59
2023-03-08T02:10:25.810Z,99065.28
2023-03-08T02:12:52.435Z,99062.69
2023-03-08T02:15:20.332Z,99068.72
2023-03-08T02:17:47.340Z,99064.44
2023-03-08T02:20:32.458Z,99068.78
2023-03-08T02:23:11.204Z,99054.97
2023-03-08T02:25:38.374Z,99063.59
2023-03-08T02:28:06.023Z,99064.44
2023-03-08T02:30:35.716Z,99069.63
2023-03-08T02:33:02.799Z,99077.41
2023-03-08T02:35:30.258Z,99067.06
2023-03-08T02:37:56.867Z,99079.16
2023-03-08T02:40:23.467Z,99077.44
2023-03-08T02:42:52.859Z,99078.31
2023-03-08T02:45:19.963Z,99075.72
2023-03-08T02:47:46.559Z,99081.78
2023-03-08T02:50:13.171Z,99076.59
2023-03-08T02:52:39.761Z,99077.47
2023-03-08T02:55:06.961Z,99085.25
2023-03-08T02:57:33.563Z,99087.81
2023-03-08T03:00:00.200Z,99086.09
2023-03-08T03:02:27.153Z,99083.50
2023-03-08T03:04:53.795Z,99087.84
2023-03-08T03:07:20.447Z,99086.97
2023-03-08T03:09:47.063Z,99086.09
2023-03-08T03:12:13.644Z,99086.09
2023-03-08T03:14:40.282Z,99083.50
2023-03-08T03:17:06.884Z,99084.38
2023-03-08T03:19:33.821Z,99095.63
2023-03-08T03:22:00.474Z,99091.28
2023-03-08T03:24:27.067Z,99098.22
2023-03-08T03:26:53.652Z,99086.13
2023-03-08T03:29:20.248Z,99099.94
2023-03-08T03:31:48.584Z,99098.19
2023-03-08T03:34:15.342Z,99093.03
2023-03-08T03:36:41.918Z,99099.06
2023-03-08T03:39:08.577Z,99103.41
2023-03-08T03:41:35.301Z,99109.44
2023-03-08T03:44:01.942Z,99118.97
2023-03-08T03:46:28.632Z,99110.28
2023-03-08T03:48:55.344Z,99119.81
2023-03-08T03:51:23.316Z,99122.41
2023-03-08T03:53:50.079Z,99124.13
2023-03-08T03:56:22.172Z,99122.41
2023-03-08T03:58:50.003Z,99125.88
2023-03-08T04:01:22.375Z,99128.47
2023-03-08T04:03:49.429Z,99125.88
2023-03-08T04:06:22.123Z,99140.56
2023-03-08T04:08:49.261Z,99138.81
2023-03-08T04:11:18.571Z,99142.31
2023-03-08T04:13:45.328Z,99144.03
2023-03-08T04:16:17.534Z,99142.28
2023-03-08T04:18:44.578Z,99138.81
2023-03-08T04:21:11.831Z,99138.84
2023-03-08T04:23:38.511Z,99150.94
2023-03-08T04:26:05.921Z,99144.00
2023-03-08T04:28:33.873Z,99137.97
2023-03-08T04:31:01.320Z,99149.19
2023-03-08T04:33:27.937Z,99147.50
2023-03-08T04:35:54.661Z,99150.09
2023-03-08T04:38:21.275Z,99143.16
2023-03-08T04:41:02.501Z,99149.22
2023-03-08T04:43:29.397Z,99149.22
2023-03-08T04:45:56.170Z,99153.53
2023-03-08T04:48:24.773Z,99157.00
2023-03-08T04:51:00.305Z,99153.53
2023-03-08T04:53:27.136Z,99148.34
2023-03-08T04:55:54.128Z,99150.94
2023-03-08T04:58:21.814Z,99144.00
2023-03-08T05:00:48.688Z,99148.34
2023-03-08T05:03:15.411Z,99141.44
2023-03-08T05:05:47.100Z,99150.94
2023-03-08T05:08:14.196Z,99146.63
2023-03-08T05:10:46.598Z,99156.13
2023-03-08T05:13:13.258Z,99160.47
2023-03-08T05:15:39.865Z,99154.41
2023-03-08T05:18:06.455Z,99154.41
2023-03-08T05:20:33.126Z,99161.31
2023-03-08T05:22:59.730Z,99152.69
2023-03-08T05:25:26.440Z,99152.66
2023-03-08T05:27:54.011Z,99149.22
2023-03-08T05:30:20.709Z,99152.66
2023-03-08T05:32:47.473Z,99151.78
2023-03-08T05:35:14.247Z,99151.78
2023-03-08T05:37:40.954Z,99143.16
2023-03-08T05:40:08.264Z,99144.03
2023-03-08T05:42:35.053Z,99150.94
2023-03-08T05:45:01.933Z,99148.38
2023-03-08T05:47:30.529Z,99151.81
2023-03-08T05:49:57.414Z,99154.38
2023-03-08T05:52:24.125Z,99161.31
2023-03-08T05:54:50.909Z,99166.50
2023-03-08T05:57:17.621Z,99166.50
2023-03-08T05:59:44.330Z,99163.03
2023-03-08T06:02:11.005Z,99176.88
2023-03-08T06:04:37.741Z,99170.84
2023-03-08T06:07:04.594Z,99172.56
2023-03-08T06:09:31.358Z,99169.09
2023-03-08T06:11:58.096Z,99174.28
2023-03-08T06:14:24.806Z,99173.44
2023-03-08T06:16:51.550Z,99174.28
2023-03-08T06:19:18.234Z,99176.88
2023-03-08T06:21:45.005Z,99171.69
2023-03-08T06:24:11.644Z,99179.47
2023-03-08T06:26:38.346Z,99180.31
2023-03-08T06:29:05.071Z,99169.09
2023-03-08T06:31:31.805Z,99177.75
2023-03-08T06:33:58.495Z,99169.97
2023-03-08T06:36:25.189Z,99175.16
2023-03-08T06:38:52.022Z,99182.06
2023-03-08T06:41:20.279Z,99183.81
2023-03-08T06:43:47.132Z,99176.88
2023-03-08T06:46:17.092Z,99179.44
2023-03-08T06:48:47.311Z,99181.19
2023-03-08T06:51:14.244Z,99181.16
2023-03-08T06:53:41.359Z,99184.66
2023-03-08T06:56:22.447Z,99191.56
2023-03-08T06:58:52.223Z,99189.78
2023-03-08T07:01:19.219Z,99187.19
2023-03-08T07:03:48.009Z,99202.75
2023-03-08T07:06:14.903Z,99192.31
2023-03-08T07:08:41.813Z,99184.53
2023-03-08T07:11:11.453Z,99183.63
2023-03-08T07:13:38.477Z,99187.09
2023-03-08T07:16:10.022Z,99186.22
2023-03-08T07:18:37.154Z,99186.22
2023-03-08T07:21:04.484Z,99171.50
2023-03-08T07:23:31.472Z,99182.72
2023-03-08T07:25:58.213Z,99181.81
2023-03-08T07:28:24.995Z,99174.03
2023-03-08T07:30:52.928Z,99174.91
2023-03-08T07:36:08.076Z,99175.72
2023-03-08T07:38:34.700Z,99170.50
2023-03-08T07:41:01.289Z,99172.28
2023-03-08T07:43:27.922Z,99182.63
2023-03-08T07:45:54.543Z,99182.56
2023-03-08T07:48:21.130Z,99186.94
2023-03-08T07:50:47.716Z,99187.78
2023-03-08T07:53:14.331Z,99184.31
2023-03-08T07:55:40.940Z,99188.63
2023-03-08T07:58:07.554Z,99180.84
2023-03-08T08:00:34.160Z,99186.84
2023-03-08T08:03:00.798Z,99185.97
2023-03-08T08:05:27.546Z,99191.13
2023-03-08T08:07:54.250Z,99198.97
2023-03-08T08:10:21.001Z,99198.09
2023-03-08T08:12:47.638Z,99189.31
2023-03-08T08:15:14.460Z,99191.03
2023-03-08T08:17:41.123Z,99184.03
2023-03-08T08:20:08.273Z,99184.84
2023-03-08T08:22:36.452Z,99178.69
2023-03-08T08:25:07.264Z,99182.25
2023-03-08T08:27:34.742Z,99190.88
2023-03-08T08:30:01.921Z,99188.38
2023-03-08T08:32:28.689Z,99191.84
2023-03-08T08:34:55.309Z,99195.34
2023-03-08T08:37:21.962Z,99188.44
2023-03-08T08:39:48.555Z,99192.63
2023-03-08T08:42:15.177Z,99190.72
2023-03-08T08:44:41.953Z,99184.44
2023-03-08T08:47:08.810Z,99179.16
2023-03-08T08:49:35.459Z,99188.69
2023-03-08T08:52:02.231Z,99191.25
2023-03-08T08:54:28.953Z,99186.78
2023-03-08T08:56:55.611Z,99175.41
2023-03-08T08:59:22.307Z,99164.13
2023-03-08T09:01:49.072Z,99156.31
2023-03-08T09:04:17.068Z,99166.59
2023-03-08T09:06:44.034Z,99162.19
2023-03-08T09:09:10.614Z,99173.47
2023-03-08T09:11:48.467Z,99169.16
2023-03-08T09:14:18.730Z,99176.19
2023-03-08T09:16:45.401Z,99172.81
2023-03-08T09:19:12.415Z,99168.44
2023-03-08T09:21:39.023Z,99166.88
2023-03-08T09:24:06.755Z,99165.38
2023-03-08T09:26:33.765Z,99177.38
2023-03-08T09:29:05.132Z,99178.25
2023-03-08T09:31:33.080Z,99182.56
2023-03-08T09:34:00.200Z,99175.75
2023-03-08T09:36:28.774Z,99173.91
2023-03-08T09:38:56.252Z,99173.84
2023-03-08T09:41:33.176Z,99176.34
2023-03-08T09:44:13.998Z,99170.22
2023-03-08T09:46:55.191Z,99164.97
2023-03-08T09:49:27.559Z,99159.66
2023-03-08T09:52:22.170Z,99152.72
2023-03-08T09:54:50.314Z,99165.06
2023-03-08T09:57:23.299Z,99155.44
2023-03-08T09:59:54.317Z,99154.25
2023-03-08T10:02:31.187Z,99144.75
2023-03-08T10:05:15.471Z,99141.00
2023-03-08T10:08:19.438Z,99148.63
2023-03-08T10:11:13.448Z,99146.16
2023-03-08T10:13:42.009Z,99138.28
2023-03-08T10:16:25.341Z,99138.19
2023-03-08T10:19:07.362Z,99131.09
2023-03-08T10:21:37.333Z,99135.16
2023-03-08T10:24:06.951Z,99133.44
2023-03-08T10:26:33.745Z,99140.34
2023-03-08T10:29:00.350Z,99131.72
2023-03-08T10:31:33.603Z,99131.63
2023-03-08T10:34:06.341Z,99138.50
2023-03-08T10:36:33.016Z,99132.88
2023-03-08T10:39:11.365Z,99137.31
2023-03-08T10:41:47.571Z,99140.25
2023-03-08T10:44:40.749Z,99152.41
2023-03-08T10:47:28.757Z,99137.91
2023-03-08T10:50:10.542Z,99139.47
2023-03-08T10:52:37.124Z,99129.94
2023-03-08T10:55:17.647Z,99129.78
2023-03-08T10:57:55.719Z,99135.66
2023-03-08T11:00:31.680Z,99125.91
2023-03-08T11:03:24.967Z,99117.97
2023-03-08T11:06:15.213Z,99112.78
2023-03-08T11:08:53.339Z,99110.03
2023-03-08T11:11:20.304Z,99107.38
2023-03-08T11:13:48.451Z,99106.56
2023-03-08T11:16:38.672Z,99103.13
2023-03-08T11:19:20.457Z,99099.63
2023-03-08T11:22:04.151Z,99091.19
2023-03-08T11:24:40.338Z,99089.47
2023-03-08T11:27:34.928Z,99077.91
2023-03-08T11:30:05.448Z,99082.81
2023-03-08T11:32:50.929Z,99074.94
2023-03-08T11:35:42.463Z,99073.09
2023-03-08T11:38:22.745Z,99059.97
2023-03-08T11:40:52.181Z,99068.56
2023-03-08T11:43:37.538Z,99050.00
2023-03-08T11:46:22.392Z,99050.78
2023-03-08T11:49:12.404Z,99049.06
2023-03-08T11:51:51.581Z,99054.03
2023-03-08T11:54:51.187Z,99053.03
2023-03-08T11:57:18.192Z,99039.97
2023-03-08T11:59:50.541Z,99042.25
2023-03-08T12:02:27.098Z,99037.47
2023-03-08T12:05:05.745Z,99037.47
2023-03-08T12:07:52.821Z,99035.63
2023-03-08T12:10:24.684Z,99029.53
2023-03-08T12:12:55.803Z,99022.59
2023-03-08T12:15:33.322Z,99017.94
2023-03-08T12:18:05.604Z,99021.53
2023-03-08T12:20:36.644Z,99018.09
2023-03-08T12:23:16.260Z,99019.03
2023-03-08T12:25:45.497Z,99023.84
2023-03-08T12:28:24.750Z,99025.56
2023-03-08T12:31:27.480Z,99020.06
2023-03-08T12:33:56.501Z,99009.84
2023-03-08T12:36:37.008Z,99004.91
2023-03-08T12:39:10.202Z,99000.31
2023-03-08T12:41:37.023Z,99008.78
2023-03-08T12:44:23.867Z,99007.09
2023-03-08T12:47:03.235Z,99003.47
2023-03-08T12:49:38.860Z,99004.31
2023-03-08T12:52:28.480Z,99001.53
2023-03-08T12:55:01.633Z,98988.94
2023-03-08T12:57:44.961Z,98988.88
2023-03-08T13:00:20.868Z,98983.53
2023-03-08T13:03:25.991Z,98986.66
2023-03-08T13:05:52.800Z,98989.88
2023-03-08T13:08:34.998Z,98990.53
2023-03-08T13:11:04.565Z,98984.13
2023-03-08T13:14:01.621Z,98982.78
2023-03-08T13:16:38.973Z,98983.56
2023-03-08T13:19:14.880Z,98978.50
2023-03-08T13:22:14.622Z,98980.81
2023-03-08T13:24:48.635Z,98992.88
2023-03-08T13:27:35.291Z,98989.16
2023-03-08T13:30:23.847Z,98994.97
2023-03-08T13:32:50.836Z,98986.31
2023-03-08T13:35:18.692Z,98991.44
2023-03-08T13:37:56.042Z,98987.28
2023-03-08T13:40:23.747Z,98988.38
2023-03-08T13:42:55.311Z,98984.91
2023-03-08T13:45:22.018Z,98983.16
2023-03-08T13:47:48.748Z,98984.94
2023-03-08T13:50:23.065Z,98980.44
2023-03-08T13:52:49.673Z,98980.59
2023-03-08T13:55:20.718Z,98980.50
2023-03-08T13:57:52.001Z,98978.28
2023-03-08T14:00:31.832Z,98977.31
2023-03-08T14:03:06.505Z,98987.25
2023-03-08T14:05:44.049Z,98976.19
2023-03-08T14:08:26.025Z,98978.50
2023-03-08T14:11:03.026Z,98971.47
2023-03-08T14:13:35.020Z,98973.16
2023-03-08T14:16:09.097Z,98969.47
2023-03-08T14:18:37.907Z,98979.31
2023-03-08T14:21:14.871Z,98967.03
2023-03-08T14:23:47.008Z,98969.03
2023-03-08T14:26:32.372Z,98963.66
2023-03-08T14:29:21.488Z,98952.72
2023-03-08T14:32:01.883Z,98957.34
2023-03-08T14:34:33.959Z,98958.94
2023-03-08T14:37:04.467Z,98962.41
2023-03-08T14:39:32.887Z,98960.78
2023-03-08T14:42:09.376Z,98954.75
2023-03-08T14:44:36.275Z,98954.84
2023-03-08T14:47:35.216Z,98956.16
2023-03-08T14:50:20.724Z,98946.03
2023-03-08T14:52:49.334Z,98943.19
2023-03-08T14:55:23.484Z,98934.81
2023-03-08T14:58:02.191Z,98931.69
2023-03-08T15:00:29.843Z,98940.44
2023-03-08T15:03:00.478Z,98929.66
2023-03-08T15:05:29.482Z,98935.84
2023-03-08T15:07:57.448Z,98929.97
2023-03-08T15:10:27.928Z,98936.06
2023-03-08T15:12:55.159Z,98932.41
2023-03-08T15:15:21.767Z,98931.44
2023-03-08T15:17:48.587Z,98935.78
2023-03-08T15:20:15.944Z,98932.69
2023-03-08T15:22:48.427Z,98931.56
2023-03-08T15:25:26.619Z,98923.66
2023-03-08T15:27:53.344Z,98924.13
2023-03-08T15:30:22.778Z,98924.44
2023-03-08T15:32:49.517Z,98925.22
2023-03-08T15:35:16.644Z,98919.25
2023-03-08T15:37:43.882Z,98923.53
2023-03-08T15:40:13.994Z,98911.13
2023-03-08T15:42:40.929Z,98906.88
2023-03-08T15:45:08.394Z,98910.19
2023-03-08T15:47:35.056Z,98905.41
2023-03-08T15:50:01.936Z,98905.81
2023-03-08T15:52:30.857Z,98904.09
2023-03-08T15:54:57.765Z,98899.16
2023-03-08T15:57:24.512Z,98901.81
2023-03-08T15:59:51.747Z,98905.19
2023-03-08T16:02:20.384Z,98903.50
2023-03-08T16:04:48.182Z,98904.34
2023-03-08T16:07:19.235Z,98899.97
2023-03-08T16:09:46.749Z,98902.94
2023-03-08T16:12:14.557Z,98901.13
2023-03-08T16:14:47.088Z,98901.88
2023-03-08T16:17:16.551Z,98906.31
2023-03-08T16:19:43.699Z,98903.66
2023-03-08T16:22:10.722Z,98904.56
2023-03-08T16:24:37.373Z,98901.03
2023-03-08T16:27:04.526Z,98904.66
2023-03-08T16:29:32.355Z,98896.09
2023-03-08T16:31:59.476Z,98906.59
2023-03-08T16:34:27.186Z,98906.69
2023-03-08T16:36:54.232Z,98904.91
2023-03-08T16:39:21.046Z,98906.63
2023-03-08T16:41:47.734Z,98906.13
2023-03-08T16:44:22.655Z,98900.16
2023-03-08T16:46:49.503Z,98895.13
2023-03-08T16:49:17.137Z,98895.88
2023-03-08T16:51:44.058Z,98895.16
2023-03-08T16:54:13.915Z,98896.91
2023-03-08T16:56:40.828Z,98901.19
2023-03-08T16:59:07.425Z,98901.22
2023-03-08T17:01:34.602Z,98902.19
2023-03-08T17:04:01.341Z,98896.97
2023-03-08T17:06:29.612Z,98904.16
2023-03-08T17:08:57.652Z,98902.31
2023-03-08T17:11:26.945Z,98901.53
2023-03-08T17:13:57.926Z,98898.22
2023-03-08T17:16:27.043Z,98896.63
2023-03-08T17:18:54.481Z,98897.63
2023-03-08T17:21:22.347Z,98902.88
2023-03-08T17:23:50.578Z,98902.88
2023-03-08T17:26:18.790Z,98904.59
2023-03-08T17:28:47.024Z,98900.22
2023-03-08T17:31:16.112Z,98906.31
2023-03-08T17:33:45.956Z,98907.25
2023-03-08T17:36:13.817Z,98897.72
2023-03-08T17:38:40.570Z,98902.88
2023-03-08T17:41:12.808Z,98905.44
2023-03-08T17:43:41.262Z,98903.72
2023-03-08T17:46:28.431Z,98907.16
2023-03-08T17:48:55.547Z,98910.75
2023-03-08T17:51:24.837Z,98907.25
2023-03-08T17:53:51.952Z,98903.72
2023-03-08T17:56:21.483Z,98905.56
2023-03-08T17:58:49.172Z,98903.88
2023-03-08T18:01:18.540Z,98909.16
2023-03-08T18:03:45.314Z,98901.38
2023-03-08T18:06:24.965Z,98916.16
2023-03-08T18:08:51.880Z,98900.56
2023-03-08T18:11:18.538Z,98900.56
2023-03-08T18:13:45.148Z,98905.75
2023-03-08T18:16:11.837Z,98911.84
2023-03-08T18:18:38.641Z,98908.41
2023-03-08T18:21:13.471Z,98909.34
2023-03-08T18:23:42.710Z,98909.34
2023-03-08T18:26:11.160Z,98907.56
2023-03-08T18:28:37.756Z,98916.19
2023-03-08T18:31:13.062Z,98914.38
2023-03-08T18:33:39.767Z,98909.22
2023-03-08T18:36:06.861Z,98914.50
2023-03-08T18:38:34.184Z,98914.59
2023-03-08T18:41:26.081Z,98910.22
2023-03-08T18:43:57.119Z,98912.09
2023-03-08T18:46:28.717Z,98913.03
2023-03-08T18:48:57.324Z,98912.16
2023-03-08T18:51:24.245Z,98907.75
2023-03-08T18:53:50.881Z,98919.00
2023-03-08T18:56:17.556Z,98912.88
2023-03-08T18:58:44.157Z,98910.34
2023-03-08T19:01:16.207Z,98918.28
2023-03-08T19:03:44.172Z,98913.97
2023-03-08T19:06:11.923Z,98914.88
2023-03-08T19:08:38.830Z,98909.59
2023-03-08T19:11:12.231Z,98908.00
2023-03-08T19:13:38.848Z,98914.13
2023-03-08T19:16:07.240Z,98914.13
2023-03-08T19:18:33.973Z,98911.47
2023-03-08T19:21:00.602Z,98913.22
2023-03-08T19:23:27.261Z,98921.88
2023-03-08T19:26:12.534Z,98921.22
2023-03-08T19:28:39.169Z,98918.63
2023-03-08T19:31:05.915Z,98920.34
2023-03-08T19:33:32.567Z,98916.06
2023-03-08T19:35:59.488Z,98912.63
2023-03-08T19:38:26.150Z,98917.06
2023-03-08T19:40:52.768Z,98908.41
2023-03-08T19:43:19.356Z,98914.41
2023-03-08T19:45:49.663Z,98904.00
2023-03-08T19:48:16.432Z,98904.88
2023-03-08T19:50:46.592Z,98908.41
2023-03-08T19:53:13.341Z,98905.91
2023-03-08T19:55:50.823Z,98892.88
2023-03-08T19:58:17.962Z,98898.03
2023-03-08T20:00:44.800Z,98892.84
2023-03-08T20:03:12.322Z,98891.19
2023-03-08T20:05:41.726Z,98881.00
2023-03-08T20:08:08.538Z,98886.22
2023-03-08T20:10:37.519Z,98887.03
2023-03-08T20:13:04.420Z,98876.66
2023-03-08T20:15:32.101Z,98880.97
2023-03-08T20:17:58.824Z,98878.41
2023-03-08T20:20:25.907Z,98883.69
2023-03-08T20:22:52.531Z,98887.97
2023-03-08T20:25:19.145Z,98885.34
2023-03-08T20:27:45.770Z,98882.75
2023-03-08T20:30:13.401Z,98893.13
2023-03-08T20:32:40.058Z,98893.22
2023-03-08T20:35:07.670Z,98900.97
2023-03-08T20:37:34.547Z,98907.91
2023-03-08T20:40:04.340Z,98906.22
2023-03-08T20:42:31.389Z,98909.72
2023-03-08T20:44:58.024Z,98901.00
2023-03-08T20:47:24.762Z,98906.22
2023-03-08T20:49:51.459Z,98903.63
2023-03-08T20:52:18.124Z,98901.88
2023-03-08T20:54:44.856Z,98902.81
2023-03-08T20:57:11.628Z,98900.25
2023-03-08T20:59:38.207Z,98897.63
2023-03-08T21:02:04.910Z,98890.72
2023-03-08T21:04:31.504Z,98894.16
2023-03-08T21:06:58.161Z,98894.16
2023-03-08T21:09:24.806Z,98909.75
2023-03-08T21:11:52.422Z,98909.75
2023-03-08T21:14:19.088Z,98910.56
2023-03-08T21:16:45.778Z,98912.31
2023-03-08T21:19:12.478Z,98907.09
2023-03-08T21:21:41.277Z,98915.78
2023-03-08T21:24:11.484Z,98917.56
2023-03-08T21:26:38.234Z,98905.50
2023-03-08T21:29:07.236Z,98905.44
2023-03-08T21:31:37.706Z,98896.81
2023-03-08T21:34:05.937Z,98902.00
2023-03-08T21:36:33.083Z,98892.50
2023-03-08T21:38:59.799Z,98897.69
2023-03-08T21:41:28.671Z,98894.25
2023-03-08T21:43:55.428Z,98902.88
2023-03-08T21:46:23.426Z,98894.22
2023-03-08T21:48:50.428Z,98892.50
2023-03-08T21:51:20.013Z,98892.50
2023-03-08T21:53:48.968Z,98889.91
2023-03-08T21:56:17.001Z,98883.88
2023-03-08T21:58:44.331Z,98882.16
2023-03-08T22:01:22.944Z,98881.28
2023-03-08T22:03:52.692Z,98887.34
2023-03-08T22:06:19.316Z,98893.41
2023-03-08T22:08:47.887Z,98895.13
2023-03-08T22:11:15.015Z,98894.31
2023-03-08T22:13:44.375Z,98895.16
2023-03-08T22:16:13.297Z,98896.88
2023-03-08T22:18:39.921Z,98887.41
2023-03-08T22:21:06.542Z,98896.94
2023-03-08T22:23:33.856Z,98893.47
2023-03-08T22:26:00.581Z,98884.00
2023-03-08T22:28:27.334Z,98877.94
2023-03-08T22:30:53.930Z,98882.22
2023-03-08T22:33:20.652Z,98876.19
2023-03-08T22:35:47.951Z,98877.00
2023-03-08T22:38:15.171Z,98883.09
2023-03-08T22:40:42.298Z,98879.63
2023-03-08T22:43:09.733Z,98885.63
2023-03-08T22:45:36.490Z,98891.63
2023-03-08T22:48:04.499Z,98883.91
2023-03-08T22:50:31.206Z,98895.13
2023-03-08T22:52:59.910Z,98896.84
2023-03-08T22:55:26.499Z,98896.88
2023-03-08T22:57:53.196Z,98895.16
2023-03-08T23:00:20.651Z,98893.44
2023-03-08T23:02:48.187Z,98888.25
2023-03-08T23:05:17.274Z,98886.50
2023-03-08T23:07:44.058Z,98870.94
2023-03-08T23:10:11.956Z,98865.75
2023-03-08T23:12:41.672Z,98866.56
2023-03-08T23:15:09.412Z,98857.03
2023-03-08T23:17:38.356Z,98854.50
2023-03-08T23:20:05.712Z,98844.13
2023-03-08T23:22:32.796Z,98845.00
2023-03-08T23:24:59.510Z,98844.09
2023-03-08T23:27:26.153Z,98840.66
2023-03-08T23:29:52.988Z,98847.56
2023-03-08T23:32:20.097Z,98843.25
2023-03-08T23:34:46.735Z,98843.22
2023-03-08T23:37:13.511Z,98835.38
2023-03-08T23:39:40.124Z,98829.31
2023-03-08T23:42:06.948Z,98829.38
2023-03-08T23:44:33.821Z,98830.22
2023-03-08T23:47:00.433Z,98833.56
2023-03-08T23:49:29.645Z,98826.69
2023-03-08T23:51:56.268Z,98827.59
2023-03-08T23:54:23.028Z,98827.56
2023-03-08T23:56:51.977Z,98830.22
2023-03-08T23:59:22.910Z,98834.59
